createdAt,value
2016-08-10T00:00:16.685Z,969.73
2016-08-10T00:01:16.647Z,969.71
2016-08-10T00:02:16.615Z,969.72
2016-08-10T00:03:16.580Z,969.73
2016-08-10T00:04:16.547Z,969.7
2016-08-10T00:05:16.513Z,969.69
2016-08-10T00:06:16.481Z,969.69
2016-08-10T00:07:16.452Z,969.7
2016-08-10T00:08:16.415Z,969.7
2016-08-10T00:09:16.381Z,969.63
2016-08-10T00:10:16.347Z,969.68
2016-08-10T00:11:16.315Z,969.63
2016-08-10T00:12:16.281Z,969.63
2016-08-10T00:13:16.247Z,969.61
2016-08-10T00:14:16.214Z,969.63
2016-08-10T00:15:16.182Z,969.62
2016-08-10T00:16:16.147Z,969.6
2016-08-10T00:17:16.114Z,969.61
2016-08-10T00:18:16.081Z,969.61
2016-08-10T00:19:16.048Z,969.56
2016-08-10T00:20:16.017Z,969.57
2016-08-10T00:21:15.982Z,969.59
2016-08-10T00:22:15.949Z,969.59
2016-08-10T00:23:15.915Z,969.64
2016-08-10T00:24:15.882Z,969.65
2016-08-10T00:25:15.854Z,969.63
2016-08-10T00:26:15.814Z,969.65
2016-08-10T00:27:15.780Z,969.65
2016-08-10T00:28:15.749Z,969.64
2016-08-10T00:29:15.725Z,969.61
2016-08-10T00:30:15.681Z,969.6
2016-08-10T00:31:15.647Z,969.6
2016-08-10T00:32:15.614Z,969.58
2016-08-10T00:33:15.582Z,969.58
2016-08-10T00:34:15.547Z,969.53
2016-08-10T00:35:15.515Z,969.56
2016-08-10T00:36:15.490Z,969.51
2016-08-10T00:37:15.447Z,969.51
2016-08-10T00:38:15.414Z,969.49
2016-08-10T00:39:15.380Z,969.47
2016-08-10T00:40:15.349Z,969.48
2016-08-10T00:41:15.315Z,969.45
2016-08-10T00:42:15.281Z,969.44
2016-08-10T00:43:15.247Z,969.5
2016-08-10T00:44:15.214Z,969.49
2016-08-10T00:45:15.181Z,969.52
2016-08-10T00:46:15.146Z,969.51
2016-08-10T00:47:15.115Z,969.48
2016-08-10T00:48:15.080Z,969.46
2016-08-10T00:49:15.047Z,969.46
2016-08-10T00:50:15.017Z,969.45
2016-08-10T00:51:14.980Z,969.42
2016-08-10T00:52:14.950Z,969.37
2016-08-10T00:53:14.913Z,969.38
2016-08-10T00:54:14.882Z,969.4
2016-08-10T00:55:14.850Z,969.35
2016-08-10T00:56:14.815Z,969.34
2016-08-10T00:57:14.784Z,969.35
2016-08-10T00:58:14.750Z,969.37
2016-08-10T00:59:14.715Z,969.33
2016-08-10T01:00:14.683Z,969.33
2016-08-10T01:01:14.651Z,969.29
2016-08-10T01:02:14.616Z,969.3
2016-08-10T01:03:14.584Z,969.27
2016-08-10T01:04:14.550Z,969.22
2016-08-10T01:05:14.516Z,969.18
2016-08-10T01:06:14.483Z,969.2
2016-08-10T01:07:14.449Z,969.15
2016-08-10T01:08:14.417Z,969.13
2016-08-10T01:09:14.398Z,969.06
2016-08-10T01:10:14.349Z,969.07
2016-08-10T01:11:14.315Z,969.06
2016-08-10T01:12:14.283Z,969.03
2016-08-10T01:13:14.250Z,968.98
2016-08-10T01:14:14.216Z,969
2016-08-10T01:15:14.187Z,968.98
2016-08-10T01:16:14.149Z,968.95
2016-08-10T01:17:14.117Z,968.96
2016-08-10T01:18:14.083Z,968.94
2016-08-10T01:19:14.051Z,968.92
2016-08-10T01:20:14.017Z,968.95
2016-08-10T01:21:13.984Z,968.92
2016-08-10T01:22:13.951Z,968.92
2016-08-10T01:23:13.939Z,968.96
2016-08-10T01:24:13.883Z,968.96
2016-08-10T01:25:13.850Z,968.94
2016-08-10T01:26:13.817Z,968.95
2016-08-10T01:27:13.785Z,968.92
2016-08-10T01:28:13.751Z,968.91
2016-08-10T01:29:13.718Z,968.87
2016-08-10T01:30:13.684Z,968.9
2016-08-10T01:31:13.654Z,968.87
2016-08-10T01:32:13.631Z,968.85
2016-08-10T01:33:13.586Z,968.82
2016-08-10T01:34:13.550Z,968.77
2016-08-10T01:35:13.519Z,968.78
2016-08-10T01:36:13.486Z,968.72
2016-08-10T01:37:13.451Z,968.7
2016-08-10T01:38:13.419Z,968.72
2016-08-10T01:39:13.385Z,968.74
2016-08-10T01:40:13.352Z,968.72
2016-08-10T01:41:13.320Z,968.71
2016-08-10T01:42:13.296Z,968.74
2016-08-10T01:43:13.255Z,968.72
2016-08-10T01:44:13.219Z,968.73
2016-08-10T01:45:13.188Z,968.75
2016-08-10T01:46:13.156Z,968.8
2016-08-10T01:47:13.122Z,968.8
2016-08-10T01:48:13.089Z,968.82
2016-08-10T01:49:13.055Z,968.81
2016-08-10T01:50:13.019Z,968.84
2016-08-10T01:51:12.989Z,968.84
2016-08-10T01:52:12.956Z,968.87
2016-08-10T01:53:12.921Z,968.88
2016-08-10T01:54:12.889Z,968.89
2016-08-10T01:55:12.857Z,968.85
2016-08-10T01:56:12.823Z,968.84
2016-08-10T01:57:12.789Z,968.86
2016-08-10T01:58:12.766Z,968.83
2016-08-10T01:59:12.724Z,968.82
2016-08-10T02:00:12.692Z,968.85
2016-08-10T02:01:12.657Z,968.79
2016-08-10T02:02:12.623Z,968.85
2016-08-10T02:03:12.590Z,968.82
2016-08-10T02:04:12.558Z,968.84
2016-08-10T02:05:12.524Z,968.82
2016-08-10T02:06:12.494Z,968.85
2016-08-10T02:07:12.459Z,968.85
2016-08-10T02:08:12.427Z,968.81
2016-08-10T02:09:12.393Z,968.82
2016-08-10T02:10:12.363Z,968.78
2016-08-10T02:11:12.328Z,968.76
2016-08-10T02:12:12.294Z,968.78
2016-08-10T02:13:12.261Z,968.76
2016-08-10T02:14:12.229Z,968.77
2016-08-10T02:15:12.195Z,968.69
2016-08-10T02:16:12.164Z,968.68
2016-08-10T02:17:12.132Z,968.62
2016-08-10T02:18:12.096Z,968.63
2016-08-10T02:19:12.064Z,968.62
2016-08-10T02:20:12.029Z,968.66
2016-08-10T02:21:11.995Z,968.66
2016-08-10T02:22:11.969Z,968.6
2016-08-10T02:23:11.931Z,968.57
2016-08-10T02:24:11.897Z,968.59
2016-08-10T02:25:11.865Z,968.58
2016-08-10T02:26:11.834Z,968.56
2016-08-10T02:27:11.799Z,968.51
2016-08-10T02:28:11.765Z,968.52
2016-08-10T02:29:11.732Z,968.52
2016-08-10T02:30:11.750Z,968.53
2016-08-10T02:31:11.667Z,968.54
2016-08-10T02:32:11.634Z,968.55
2016-08-10T02:33:11.605Z,968.53
2016-08-10T02:34:11.567Z,968.53
2016-08-10T02:35:11.547Z,968.52
2016-08-10T02:36:11.503Z,968.51
2016-08-10T02:37:11.470Z,968.5
2016-08-10T02:39:11.404Z,968.48
2016-08-10T02:40:11.371Z,968.45
2016-08-10T02:41:11.338Z,968.48
2016-08-10T02:42:11.304Z,968.5
2016-08-10T02:43:11.272Z,968.5
2016-08-10T02:44:11.250Z,968.46
2016-08-10T02:45:11.207Z,968.49
2016-08-10T02:46:11.174Z,968.47
2016-08-10T02:47:11.142Z,968.49
2016-08-10T02:48:11.108Z,968.51
2016-08-10T02:49:11.073Z,968.55
2016-08-10T02:50:11.039Z,968.53
2016-08-10T02:51:11.009Z,968.56
2016-08-10T02:52:10.975Z,968.6
2016-08-10T02:53:10.940Z,968.61
2016-08-10T02:54:10.909Z,968.6
2016-08-10T02:55:10.877Z,968.62
2016-08-10T02:56:10.840Z,968.63
2016-08-10T02:57:10.809Z,968.71
2016-08-10T02:58:10.779Z,968.67
2016-08-10T02:59:10.743Z,968.7
2016-08-10T03:00:10.710Z,968.69
2016-08-10T03:01:10.678Z,968.72
2016-08-10T03:02:10.647Z,968.7
2016-08-10T03:03:10.611Z,968.7
2016-08-10T03:04:10.580Z,968.69
2016-08-10T03:05:10.546Z,968.7
2016-08-10T03:06:10.512Z,968.68
2016-08-10T03:07:10.480Z,968.62
2016-08-10T03:08:10.446Z,968.64
2016-08-10T03:09:10.412Z,968.67
2016-08-10T03:10:10.381Z,968.7
2016-08-10T03:11:10.346Z,968.7
2016-08-10T03:12:10.313Z,968.72
2016-08-10T03:13:10.281Z,968.68
2016-08-10T03:14:10.252Z,968.73
2016-08-10T03:15:10.216Z,968.73
2016-08-10T03:16:10.182Z,968.74
2016-08-10T03:17:10.148Z,968.78
2016-08-10T03:18:10.117Z,968.75
2016-08-10T03:19:10.083Z,968.74
2016-08-10T03:20:10.051Z,968.75
2016-08-10T03:21:10.019Z,968.7
2016-08-10T03:22:09.985Z,968.75
2016-08-10T03:23:09.951Z,968.76
2016-08-10T03:24:09.917Z,968.71
2016-08-10T03:25:09.888Z,968.74
2016-08-10T03:26:09.852Z,968.76
2016-08-10T03:27:09.820Z,968.69
2016-08-10T03:28:09.784Z,968.72
2016-08-10T03:29:09.751Z,968.69
2016-08-10T03:30:09.718Z,968.71
2016-08-10T03:31:09.686Z,968.7
2016-08-10T03:32:09.651Z,968.67
2016-08-10T03:33:09.618Z,968.72
2016-08-10T03:34:09.587Z,968.73
2016-08-10T03:35:09.553Z,968.7
2016-08-10T03:36:09.521Z,968.71
2016-08-10T03:37:09.489Z,968.7
2016-08-10T03:38:09.455Z,968.68
2016-08-10T03:39:09.422Z,968.71
2016-08-10T03:40:09.388Z,968.71
2016-08-10T03:41:09.353Z,968.72
2016-08-10T03:42:09.322Z,968.66
2016-08-10T03:43:09.293Z,968.67
2016-08-10T03:44:09.257Z,968.67
2016-08-10T03:45:09.221Z,968.63
2016-08-10T03:46:09.191Z,968.66
2016-08-10T03:47:09.160Z,968.65
2016-08-10T03:48:09.123Z,968.65
2016-08-10T03:49:09.090Z,968.63
2016-08-10T03:50:09.059Z,968.67
2016-08-10T03:51:09.024Z,968.62
2016-08-10T03:52:08.992Z,968.69
2016-08-10T03:53:08.959Z,968.66
2016-08-10T03:54:08.926Z,968.63
2016-08-10T03:55:08.892Z,968.65
2016-08-10T03:56:08.860Z,968.68
2016-08-10T03:57:08.826Z,968.65
2016-08-10T03:58:08.794Z,968.66
2016-08-10T03:59:08.759Z,968.68
2016-08-10T04:00:08.727Z,968.68
2016-08-10T04:01:08.694Z,968.66
2016-08-10T04:02:08.660Z,968.66
2016-08-10T04:03:08.626Z,968.65
2016-08-10T04:04:08.595Z,968.66
2016-08-10T04:05:08.563Z,968.66
2016-08-10T04:06:08.529Z,968.7
2016-08-10T04:07:08.498Z,968.67
2016-08-10T04:08:08.463Z,968.69
2016-08-10T04:09:08.429Z,968.69
2016-08-10T04:10:08.396Z,968.71
2016-08-10T04:11:08.364Z,968.72
2016-08-10T04:12:08.331Z,968.74
2016-08-10T04:13:08.301Z,968.75
2016-08-10T04:14:08.265Z,968.76
2016-08-10T04:15:08.232Z,968.72
2016-08-10T04:16:08.197Z,968.78
2016-08-10T04:17:08.163Z,968.84
2016-08-10T04:18:08.132Z,968.8
2016-08-10T04:19:08.098Z,968.86
2016-08-10T04:20:08.064Z,968.87
2016-08-10T04:21:08.033Z,968.93
2016-08-10T04:22:08.001Z,968.9
2016-08-10T04:23:07.975Z,968.91
2016-08-10T04:24:07.934Z,968.92
2016-08-10T04:25:07.898Z,968.96
2016-08-10T04:26:07.866Z,968.95
2016-08-10T04:27:07.833Z,968.99
2016-08-10T04:28:07.802Z,968.96
2016-08-10T04:29:07.768Z,968.97
2016-08-10T04:30:07.735Z,968.99
2016-08-10T04:31:07.700Z,968.99
2016-08-10T04:32:07.668Z,969.04
2016-08-10T04:33:07.634Z,969.09
2016-08-10T04:34:07.602Z,969
2016-08-10T04:35:07.567Z,969.05
2016-08-10T04:36:07.534Z,969.06
2016-08-10T04:37:07.501Z,969.07
2016-08-10T04:38:07.477Z,969.08
2016-08-10T04:39:07.434Z,969.12
2016-08-10T04:40:07.401Z,969.14
2016-08-10T04:41:07.371Z,969.13
2016-08-10T04:42:07.336Z,969.13
2016-08-10T04:43:07.303Z,969.16
2016-08-10T04:44:07.271Z,969.17
2016-08-10T04:45:07.235Z,969.17
2016-08-10T04:46:07.204Z,969.13
2016-08-10T04:47:07.172Z,969.15
2016-08-10T04:48:07.138Z,969.11
2016-08-10T04:49:07.105Z,969.1
2016-08-10T04:50:07.070Z,969.15
2016-08-10T04:51:07.037Z,969.11
2016-08-10T04:52:07.006Z,969.15
2016-08-10T04:53:06.969Z,969.13
2016-08-10T04:54:06.939Z,969.15
2016-08-10T04:55:06.907Z,969.16
2016-08-10T04:56:06.873Z,969.17
2016-08-10T04:57:06.839Z,969.19
2016-08-10T04:58:06.806Z,969.2
2016-08-10T04:59:06.773Z,969.18
2016-08-10T05:00:06.739Z,969.22
2016-08-10T05:01:06.705Z,969.15
2016-08-10T05:02:06.674Z,969.19
2016-08-10T05:03:06.640Z,969.14
2016-08-10T05:04:06.609Z,969.17
2016-08-10T05:05:06.578Z,969.18
2016-08-10T05:06:06.542Z,969.2
2016-08-10T05:07:06.512Z,969.21
2016-08-10T05:08:06.476Z,969.17
2016-08-10T05:09:06.441Z,969.18
2016-08-10T05:10:06.410Z,969.19
2016-08-10T05:11:06.376Z,969.2
2016-08-10T05:12:06.344Z,969.21
2016-08-10T05:13:06.311Z,969.14
2016-08-10T05:14:06.278Z,969.18
2016-08-10T05:15:06.247Z,969.17
2016-08-10T05:16:06.212Z,969.14
2016-08-10T05:17:06.181Z,969.15
2016-08-10T05:18:06.147Z,969.19
2016-08-10T05:19:06.116Z,969.16
2016-08-10T05:20:06.081Z,969.16
2016-08-10T05:21:06.050Z,969.13
2016-08-10T05:22:06.024Z,969.13
2016-08-10T05:23:05.986Z,969.08
2016-08-10T05:24:05.952Z,969.08
2016-08-10T05:25:05.920Z,969.12
2016-08-10T05:26:05.885Z,969.14
2016-08-10T05:27:05.856Z,969.14
2016-08-10T05:28:05.821Z,969.11
2016-08-10T05:29:05.789Z,969.12
2016-08-10T05:30:05.756Z,969.17
2016-08-10T05:31:05.724Z,969.13
2016-08-10T05:32:05.694Z,969.13
2016-08-10T05:33:05.660Z,969.18
2016-08-10T05:34:05.625Z,969.15
2016-08-10T05:35:05.592Z,969.15
2016-08-10T05:36:05.562Z,969.18
2016-08-10T05:37:05.529Z,969.15
2016-08-10T05:38:05.515Z,969.2
2016-08-10T05:39:05.463Z,969.12
2016-08-10T05:40:05.431Z,969.15
2016-08-10T05:41:05.400Z,969.19
2016-08-10T05:42:05.365Z,969.18
2016-08-10T05:43:05.335Z,969.19
2016-08-10T05:44:05.301Z,969.18
2016-08-10T05:45:05.267Z,969.17
2016-08-10T05:46:05.237Z,969.17
2016-08-10T05:47:05.205Z,969.15
2016-08-10T05:48:05.169Z,969.16
2016-08-10T05:49:05.139Z,969.19
2016-08-10T05:50:05.106Z,969.22
2016-08-10T05:51:05.074Z,969.22
2016-08-10T05:52:05.042Z,969.2
2016-08-10T05:53:05.009Z,969.18
2016-08-10T05:54:04.977Z,969.19
2016-08-10T05:55:04.946Z,969.21
2016-08-10T05:56:04.910Z,969.23
2016-08-10T05:57:04.880Z,969.24
2016-08-10T05:58:04.848Z,969.25
2016-08-10T05:59:04.815Z,969.26
2016-08-10T06:00:04.783Z,969.23
2016-08-10T06:01:04.750Z,969.3
2016-08-10T06:02:04.740Z,969.29
2016-08-10T06:03:04.684Z,969.32
2016-08-10T06:04:04.653Z,969.32
2016-08-10T06:05:04.622Z,969.32
2016-08-10T06:06:04.587Z,969.34
2016-08-10T06:07:04.558Z,969.33
2016-08-10T06:08:04.531Z,969.34
2016-08-10T06:09:04.493Z,969.33
2016-08-10T06:10:04.459Z,969.32
2016-08-10T06:11:04.427Z,969.32
2016-08-10T06:12:04.396Z,969.35
2016-08-10T06:13:04.364Z,969.33
2016-08-10T06:14:04.332Z,969.4
2016-08-10T06:15:04.299Z,969.39
2016-08-10T06:16:04.268Z,969.37
2016-08-10T06:17:04.236Z,969.39
2016-08-10T06:18:04.203Z,969.36
2016-08-10T06:19:04.171Z,969.34
2016-08-10T06:20:04.141Z,969.37
2016-08-10T06:21:04.107Z,969.35
2016-08-10T06:22:04.078Z,969.35
2016-08-10T06:23:04.045Z,969.37
2016-08-10T06:25:03.982Z,969.37
2016-08-10T06:26:03.950Z,969.36
2016-08-10T06:27:03.920Z,969.36
2016-08-10T06:28:03.885Z,969.36
2016-08-10T06:29:03.856Z,969.39
2016-08-10T06:30:03.824Z,969.37
2016-08-10T06:31:03.792Z,969.43
2016-08-10T06:32:03.763Z,969.4
2016-08-10T06:33:03.730Z,969.45
2016-08-10T06:34:03.696Z,969.41
2016-08-10T06:35:03.676Z,969.48
2016-08-10T06:36:03.636Z,969.47
2016-08-10T06:37:03.603Z,969.49
2016-08-10T06:38:03.571Z,969.46
2016-08-10T06:39:03.540Z,969.47
2016-08-10T06:40:03.508Z,969.44
2016-08-10T06:41:03.479Z,969.47
2016-08-10T06:42:03.448Z,969.44
2016-08-10T06:43:03.416Z,969.47
2016-08-10T06:44:03.383Z,969.46
2016-08-10T06:45:03.353Z,969.48
2016-08-10T06:46:03.323Z,969.54
2016-08-10T06:47:03.291Z,969.51
2016-08-10T06:48:03.260Z,969.46
2016-08-10T06:49:03.230Z,969.51
2016-08-10T06:50:03.199Z,969.51
2016-08-10T06:51:03.166Z,969.55
2016-08-10T06:52:03.141Z,969.58
2016-08-10T06:53:03.106Z,969.58
2016-08-10T06:54:03.072Z,969.57
2016-08-10T06:55:03.043Z,969.59
2016-08-10T06:56:03.014Z,969.6
2016-08-10T06:57:02.980Z,969.63
2016-08-10T06:58:02.958Z,969.62
2016-08-10T06:59:02.919Z,969.65
2016-08-10T07:00:02.888Z,969.61
2016-08-10T07:01:02.856Z,969.65
2016-08-10T07:02:02.828Z,969.66
2016-08-10T07:03:02.796Z,969.69
2016-08-10T07:04:02.766Z,969.6
2016-08-10T07:05:02.735Z,969.66
2016-08-10T07:06:02.703Z,969.64
2016-08-10T07:07:02.673Z,969.64
2016-08-10T07:08:02.640Z,969.69
2016-08-10T07:09:02.612Z,969.7
2016-08-10T07:10:02.580Z,969.71
2016-08-10T07:11:02.550Z,969.73
2016-08-10T07:12:02.518Z,969.65
2016-08-10T07:13:02.488Z,969.63
2016-08-10T07:14:02.456Z,969.67
2016-08-10T07:15:02.427Z,969.64
2016-08-10T07:16:02.395Z,969.7
2016-08-10T07:17:02.382Z,969.67
2016-08-10T07:18:02.336Z,969.64
2016-08-10T07:19:02.302Z,969.67
2016-08-10T07:20:02.274Z,969.7
2016-08-10T07:21:02.242Z,969.67
2016-08-10T07:22:02.211Z,969.63
2016-08-10T07:23:02.179Z,969.63
2016-08-10T07:24:02.152Z,969.63
2016-08-10T07:25:02.121Z,969.58
2016-08-10T07:26:02.089Z,969.6
2016-08-10T07:27:02.057Z,969.58
2016-08-10T07:28:02.025Z,969.61
2016-08-10T07:29:01.997Z,969.62
2016-08-10T07:30:01.965Z,969.6
2016-08-10T07:31:01.935Z,969.61
2016-08-10T07:32:01.904Z,969.6
2016-08-10T07:33:01.873Z,969.63
2016-08-10T07:34:01.842Z,969.6
2016-08-10T07:35:01.813Z,969.58
2016-08-10T07:36:01.782Z,969.63
2016-08-10T07:37:01.749Z,969.65
2016-08-10T07:38:01.719Z,969.62
2016-08-10T07:39:01.689Z,969.67
2016-08-10T07:40:01.660Z,969.62
2016-08-10T07:41:01.628Z,969.65
2016-08-10T07:42:01.598Z,969.66
2016-08-10T07:43:01.566Z,969.63
2016-08-10T07:44:01.538Z,969.64
2016-08-10T07:45:01.506Z,969.58
2016-08-10T07:46:01.475Z,969.58
2016-08-10T07:47:01.447Z,969.57
2016-08-10T07:48:01.415Z,969.59
2016-08-10T07:49:01.385Z,969.59
2016-08-10T07:50:01.356Z,969.57
2016-08-10T07:51:01.325Z,969.59
2016-08-10T07:52:01.296Z,969.59
2016-08-10T07:53:01.266Z,969.57
2016-08-10T07:54:01.236Z,969.55
2016-08-10T07:55:01.205Z,969.56
2016-08-10T07:56:01.176Z,969.56
2016-08-10T07:57:01.144Z,969.53
2016-08-10T07:58:01.114Z,969.57
2016-08-10T07:59:01.086Z,969.56
2016-08-10T08:00:01.055Z,969.56
2016-08-10T08:01:01.024Z,969.56
2016-08-10T08:02:00.996Z,969.61
2016-08-10T08:03:00.964Z,969.58
2016-08-10T08:04:00.934Z,969.58
2016-08-10T08:05:00.904Z,969.6
2016-08-10T08:06:00.875Z,969.64
2016-08-10T08:07:00.845Z,969.63
2016-08-10T08:08:00.814Z,969.65
2016-08-10T08:09:00.785Z,969.62
2016-08-10T08:10:00.754Z,969.64
2016-08-10T08:11:00.724Z,969.66
2016-08-10T08:12:00.693Z,969.62
2016-08-10T08:13:00.664Z,969.61
2016-08-10T08:14:00.632Z,969.61
2016-08-10T08:15:00.604Z,969.61
2016-08-10T08:16:00.574Z,969.57
2016-08-10T08:17:00.543Z,969.59
2016-08-10T08:18:00.517Z,969.54
2016-08-10T08:19:00.481Z,969.56
2016-08-10T08:20:00.451Z,969.6
2016-08-10T08:21:00.420Z,969.59
2016-08-10T08:22:00.391Z,969.62
2016-08-10T08:23:00.363Z,969.63
2016-08-10T08:24:00.332Z,969.7
2016-08-10T08:25:00.303Z,969.7
2016-08-10T08:26:00.272Z,969.74
2016-08-10T08:27:00.241Z,969.87
2016-08-10T08:28:00.213Z,969.83
2016-08-10T08:29:00.182Z,970.08
2016-08-10T08:30:00.150Z,970.13
2016-08-10T08:31:00.123Z,970.01
2016-08-10T08:32:00.091Z,970.22
2016-08-10T08:33:00.064Z,970.27
2016-08-10T08:34:00.036Z,970.17
2016-08-10T08:35:00.011Z,970.56
2016-08-10T08:35:59.979Z,970.6
2016-08-10T08:36:59.950Z,970.51
2016-08-10T08:37:59.932Z,970.46
2016-08-10T08:38:59.901Z,970.45
2016-08-10T08:39:59.878Z,970.46
2016-08-10T08:40:59.852Z,970.16
2016-08-10T08:41:59.826Z,970
2016-08-10T08:42:59.801Z,969.92
2016-08-10T08:43:59.777Z,969.93
2016-08-10T08:44:59.757Z,969.93
2016-08-10T08:45:59.733Z,969.93
2016-08-10T08:46:59.707Z,969.9
2016-08-10T08:47:59.687Z,969.99
2016-08-10T08:48:59.663Z,970.56
2016-08-10T08:49:59.640Z,969.98
2016-08-10T08:50:59.618Z,970.21
2016-08-10T08:51:59.596Z,970.29
2016-08-10T08:52:59.573Z,969.93
2016-08-10T08:53:59.549Z,969.83
2016-08-10T08:54:59.529Z,969.82
2016-08-10T08:55:59.504Z,969.79
2016-08-10T08:56:59.482Z,969.77
2016-08-10T08:57:59.459Z,969.72
2016-08-10T08:58:59.437Z,969.8
2016-08-10T08:59:59.416Z,969.75
2016-08-10T09:00:59.391Z,969.71
2016-08-10T09:01:59.368Z,969.72
2016-08-10T09:02:59.345Z,969.7
2016-08-10T09:03:59.322Z,969.72
2016-08-10T09:04:59.299Z,969.77
2016-08-10T09:05:59.275Z,969.73
2016-08-10T09:06:59.250Z,969.74
2016-08-10T09:07:59.226Z,969.71
2016-08-10T09:08:59.203Z,969.69
2016-08-10T09:09:59.176Z,969.71
2016-08-10T09:10:59.152Z,969.71
2016-08-10T09:11:59.124Z,969.72
2016-08-10T09:12:59.100Z,969.7
2016-08-10T09:13:59.073Z,969.69
2016-08-10T09:14:59.048Z,969.65
2016-08-10T09:15:59.023Z,969.69
2016-08-10T09:16:58.996Z,969.65
2016-08-10T09:17:58.971Z,969.7
2016-08-10T09:18:58.942Z,969.74
2016-08-10T09:19:58.915Z,969.69
2016-08-10T09:20:58.889Z,969.7
2016-08-10T09:21:58.863Z,969.71
2016-08-10T09:22:58.834Z,969.69
2016-08-10T09:23:58.808Z,969.77
2016-08-10T09:24:58.781Z,969.76
2016-08-10T09:25:58.755Z,969.76
2016-08-10T09:26:58.725Z,969.77
2016-08-10T09:27:58.698Z,969.81
2016-08-10T09:28:58.672Z,969.83
2016-08-10T09:29:58.643Z,969.77
2016-08-10T09:30:58.616Z,969.83
2016-08-10T09:31:58.588Z,969.83
2016-08-10T09:32:58.560Z,969.82
2016-08-10T09:33:58.530Z,969.78
2016-08-10T09:34:58.504Z,969.74
2016-08-10T09:35:58.482Z,969.75
2016-08-10T09:36:58.447Z,969.73
2016-08-10T09:37:58.420Z,969.74
2016-08-10T09:38:58.395Z,969.74
2016-08-10T09:39:58.365Z,969.75
2016-08-10T09:40:58.339Z,969.7
2016-08-10T09:41:58.309Z,969.7
2016-08-10T09:42:58.282Z,969.71
2016-08-10T09:43:58.251Z,969.7
2016-08-10T09:44:58.225Z,969.7
2016-08-10T09:45:58.194Z,969.73
2016-08-10T09:46:58.169Z,969.76
2016-08-10T09:47:58.140Z,969.75
2016-08-10T09:48:58.111Z,969.77
2016-08-10T09:49:58.082Z,969.77
2016-08-10T09:50:58.054Z,969.78
2016-08-10T09:51:58.025Z,969.79
2016-08-10T09:52:57.995Z,969.8
2016-08-10T09:53:57.970Z,969.85
2016-08-10T09:54:57.942Z,969.81
2016-08-10T09:55:57.910Z,969.82
2016-08-10T09:56:57.884Z,969.74
2016-08-10T09:57:57.855Z,969.79
2016-08-10T09:58:57.827Z,969.74
2016-08-10T09:59:57.799Z,969.75
2016-08-10T10:00:57.769Z,969.79
2016-08-10T10:01:57.741Z,969.74
2016-08-10T10:02:57.713Z,969.73
2016-08-10T10:03:57.681Z,969.74
2016-08-10T10:04:57.656Z,969.75
2016-08-10T10:05:57.625Z,969.74
2016-08-10T10:06:57.596Z,969.73
2016-08-10T10:07:57.567Z,969.65
2016-08-10T10:08:57.540Z,969.64
2016-08-10T10:09:57.510Z,969.66
2016-08-10T10:10:57.481Z,969.64
2016-08-10T10:11:57.452Z,969.62
2016-08-10T10:12:57.424Z,969.57
2016-08-10T10:13:57.394Z,969.6
2016-08-10T10:14:57.366Z,969.61
2016-08-10T10:15:57.336Z,969.63
2016-08-10T10:16:57.307Z,969.59
2016-08-10T10:17:57.278Z,969.62
2016-08-10T10:18:57.247Z,969.67
2016-08-10T10:19:57.218Z,969.61
2016-08-10T10:20:57.189Z,969.59
2016-08-10T10:21:57.161Z,969.59
2016-08-10T10:22:57.131Z,969.56
2016-08-10T10:23:57.103Z,969.59
2016-08-10T10:25:57.042Z,969.62
2016-08-10T10:26:57.015Z,969.66
2016-08-10T10:27:56.986Z,969.66
2016-08-10T10:28:56.955Z,969.63
2016-08-10T10:29:56.925Z,969.61
2016-08-10T10:30:56.897Z,969.64
2016-08-10T10:31:56.866Z,969.66
2016-08-10T10:32:56.834Z,969.68
2016-08-10T10:33:56.806Z,969.72
2016-08-10T10:34:56.776Z,969.72
2016-08-10T10:35:56.746Z,969.7
2016-08-10T10:36:56.724Z,969.75
2016-08-10T10:37:56.690Z,969.76
2016-08-10T10:38:56.671Z,969.75
2016-08-10T10:40:56.598Z,969.75
2016-08-10T10:41:56.568Z,969.75
2016-08-10T10:42:56.538Z,969.71
2016-08-10T10:43:56.508Z,969.71
2016-08-10T10:44:56.477Z,969.67
2016-08-10T10:45:56.448Z,969.69
2016-08-10T10:46:56.418Z,969.79
2016-08-10T10:47:56.390Z,969.83
2016-08-10T10:48:56.359Z,969.63
2016-08-10T10:49:56.330Z,969.61
2016-08-10T10:50:56.301Z,969.62
2016-08-10T10:51:56.269Z,969.58
2016-08-10T10:52:56.240Z,969.61
2016-08-10T10:53:56.211Z,969.54
2016-08-10T10:55:56.150Z,969.58
2016-08-10T10:56:56.121Z,969.58
2016-08-10T10:57:56.090Z,969.57
2016-08-10T10:58:56.061Z,969.56
2016-08-10T10:59:56.036Z,969.6
2016-08-10T11:00:56.000Z,970.21
2016-08-10T11:01:55.967Z,969.74
2016-08-10T11:02:55.938Z,969.59
2016-08-10T11:03:55.912Z,969.63
2016-08-10T11:04:55.890Z,969.6
2016-08-10T11:05:55.849Z,969.6
2016-08-10T11:06:55.819Z,969.59
2016-08-10T11:07:55.789Z,969.49
2016-08-10T11:08:55.758Z,969.56
2016-08-10T11:10:55.700Z,969.52
2016-08-10T11:11:55.671Z,969.5
2016-08-10T11:12:55.639Z,969.55
2016-08-10T11:13:55.609Z,969.56
2016-08-10T11:14:55.581Z,969.53
2016-08-10T11:15:55.549Z,969.54
2016-08-10T11:16:55.518Z,969.55
2016-08-10T11:17:55.487Z,969.54
2016-08-10T11:18:55.465Z,969.54
2016-08-10T11:19:55.428Z,969.58
2016-08-10T11:20:55.398Z,969.61
2016-08-10T11:21:55.366Z,969.59
2016-08-10T11:22:55.334Z,969.63
2016-08-10T11:23:55.303Z,969.64
2016-08-10T11:24:55.273Z,969.62
2016-08-10T11:25:55.241Z,969.56
2016-08-10T11:26:55.212Z,969.59
2016-08-10T11:27:55.181Z,969.6
2016-08-10T11:28:55.149Z,969.61
2016-08-10T11:29:55.116Z,969.61
2016-08-10T11:30:55.086Z,969.59
2016-08-10T11:31:55.052Z,969.6
2016-08-10T11:32:55.023Z,969.65
2016-08-10T11:33:54.992Z,969.59
2016-08-10T11:34:54.955Z,969.59
2016-08-10T11:35:54.925Z,969.62
2016-08-10T11:36:54.890Z,969.63
2016-08-10T11:37:54.862Z,969.67
2016-08-10T11:38:54.826Z,969.69
2016-08-10T11:39:54.794Z,969.69
2016-08-10T11:40:54.764Z,969.74
2016-08-10T11:41:54.731Z,969.74
2016-08-10T11:42:54.708Z,969.71
2016-08-10T11:43:54.666Z,969.71
2016-08-10T11:44:54.642Z,969.74
2016-08-10T11:45:54.598Z,969.73
2016-08-10T11:46:54.566Z,969.7
2016-08-10T11:47:54.531Z,969.7
2016-08-10T11:48:54.499Z,969.69
2016-08-10T11:49:54.465Z,969.71
2016-08-10T11:50:54.433Z,969.74
2016-08-10T11:51:54.399Z,969.74
2016-08-10T11:52:54.365Z,969.72
2016-08-10T11:53:54.334Z,969.71
2016-08-10T11:54:54.299Z,969.69
2016-08-10T11:55:54.267Z,969.69
2016-08-10T11:56:54.234Z,969.66
2016-08-10T11:57:54.201Z,969.67
2016-08-10T11:58:54.167Z,969.66
2016-08-10T11:59:54.134Z,969.65
2016-08-10T12:00:54.104Z,969.63
2016-08-10T12:01:54.069Z,969.6
2016-08-10T12:02:54.035Z,969.66
2016-08-10T12:03:54.002Z,969.67
2016-08-10T12:04:53.969Z,969.63
2016-08-10T12:05:53.936Z,969.65
2016-08-10T12:06:53.901Z,969.65
2016-08-10T12:07:53.869Z,969.72
2016-08-10T12:08:53.834Z,969.67
2016-08-10T12:09:53.801Z,969.69
2016-08-10T12:10:53.767Z,969.64
2016-08-10T12:11:53.736Z,969.64
2016-08-10T12:12:53.701Z,969.61
2016-08-10T12:13:53.670Z,969.58
2016-08-10T12:14:53.635Z,969.62
2016-08-10T12:15:53.601Z,969.58
2016-08-10T12:16:53.571Z,969.59
2016-08-10T12:17:53.535Z,969.6
2016-08-10T12:18:53.504Z,969.62
2016-08-10T12:19:53.470Z,969.56
2016-08-10T12:20:53.438Z,969.63
2016-08-10T12:21:53.402Z,969.65
2016-08-10T12:22:53.370Z,969.63
2016-08-10T12:23:53.336Z,969.66
2016-08-10T12:24:53.303Z,969.66
2016-08-10T12:25:53.269Z,969.65
2016-08-10T12:26:53.238Z,969.65
2016-08-10T12:27:53.208Z,969.69
2016-08-10T12:28:53.172Z,969.74
2016-08-10T12:29:53.138Z,969.75
2016-08-10T12:30:53.105Z,969.73
2016-08-10T12:31:53.071Z,969.81
2016-08-10T12:32:53.037Z,969.82
2016-08-10T12:33:53.005Z,969.83
2016-08-10T12:34:52.973Z,969.78
2016-08-10T12:35:52.937Z,969.81
2016-08-10T12:36:52.904Z,969.83